Details for EasyJet at LFPO




Go Back


Latest METAR
Local Time

LFPO 232330Z 05010KT CAVOK M00/M07 Q1015 NOSIG

24/02/2018, 00:49:17

Description
Results
EasyJet Logo
Number of Pilots based at LFPO
0 Pilots Based here
Number of EasyJet Flights Departed from LFPO
0 Flights Departed
Number of EasyJet Flights Arrived at LFPO
1 Flights Arrived
Number of EasyJet Schedules Departing from LFPO
66 Schedules
Number of EasyJet Schedules Arriving at LFPO
67 Schedules
Number of EasyJet Schedules Departing from LFPO availible today
28 Schedules Today
Number of EasyJet Schedules Arriving at LFPO availible today
28 Schedules Today
Average Landing Rate at LFPO
-221 fpm
EasyJet Average Landing Rate at LFPO
-314 fpm
Total Fuel Purchased at LFPO by EasyJet
0.00 kgs / 0.00 lbs

Pilots Based at LFPO


Pilot ID
Pilot Name
Pilot Rank
No. of Flights
No. of Flying Hours
There are no pilots assigned to this hub!   Will you be the first?
Content